createdAt,value
2023-03-15T00:01:46.699Z,36.53
2023-03-15T00:04:16.119Z,38.20
2023-03-15T00:06:45.149Z,34.33
2023-03-15T00:09:16.859Z,32.63
2023-03-15T00:11:50.183Z,30.17
2023-03-15T00:14:21.138Z,31.77
2023-03-15T00:16:50.108Z,27.80
2023-03-15T00:19:18.711Z,36.43
2023-03-15T00:21:47.196Z,33.60
2023-03-15T00:24:15.974Z,38.83
2023-03-15T00:26:44.592Z,37.17
2023-03-15T00:29:13.127Z,32.10
2023-03-15T00:31:43.202Z,31.97
2023-03-15T00:34:14.123Z,31.10
2023-03-15T00:36:43.804Z,26.57
2023-03-15T00:39:15.882Z,29.57
2023-03-15T00:41:45.982Z,30.27
2023-03-15T00:44:14.926Z,30.13
2023-03-15T00:46:45.051Z,31.93
2023-03-15T00:49:17.487Z,27.40
2023-03-15T00:51:46.285Z,24.10
2023-03-15T00:54:15.168Z,30.47
2023-03-15T00:56:43.749Z,16.20
2023-03-15T00:59:12.637Z,19.90
2023-03-15T01:01:44.923Z,21.17
2023-03-15T01:04:15.585Z,22.83
2023-03-15T01:06:48.221Z,17.33
2023-03-15T01:09:16.754Z,13.87
2023-03-15T01:11:45.372Z,10.73
2023-03-15T01:14:13.947Z,14.57
2023-03-15T01:16:42.618Z,13.33
2023-03-15T01:19:11.178Z,16.87
2023-03-15T01:21:41.687Z,20.40
2023-03-15T01:24:14.733Z,30.90
2023-03-15T01:26:43.625Z,44.37
2023-03-15T01:29:13.974Z,28.57
2023-03-15T01:31:42.577Z,46.67
2023-03-15T01:34:11.744Z,29.63
2023-03-15T01:36:41.750Z,24.83
2023-03-15T01:39:10.415Z,17.83
2023-03-15T01:41:39.209Z,22.70
2023-03-15T01:44:10.836Z,22.10
2023-03-15T01:46:39.421Z,24.23
2023-03-15T01:49:10.059Z,27.73
2023-03-15T01:51:44.438Z,27.27
2023-03-15T01:54:18.224Z,21.10
2023-03-15T01:56:54.005Z,27.43
2023-03-15T01:59:27.172Z,27.67
2023-03-15T02:01:56.533Z,28.63
2023-03-15T02:04:31.678Z,25.60
2023-03-15T02:07:03.929Z,28.03
2023-03-15T02:09:43.265Z,26.90
2023-03-15T02:12:12.750Z,25.50
2023-03-15T02:14:42.551Z,20.73
2023-03-15T02:17:18.682Z,23.50
2023-03-15T02:19:55.973Z,18.10
2023-03-15T02:22:38.035Z,21.87
2023-03-15T02:25:18.232Z,20.03
2023-03-15T02:27:49.547Z,17.47
2023-03-15T02:30:21.075Z,22.20
2023-03-15T02:32:50.120Z,23.17
2023-03-15T02:35:25.994Z,22.03
2023-03-15T02:37:59.658Z,21.27
2023-03-15T02:40:30.299Z,21.13
2023-03-15T02:43:06.152Z,25.00
2023-03-15T02:45:37.227Z,21.33
2023-03-15T02:48:08.056Z,22.63
2023-03-15T02:50:36.837Z,19.48
2023-03-15T02:53:06.003Z,16.60
2023-03-15T02:55:34.723Z,30.13
2023-03-15T02:58:04.751Z,26.67
2023-03-15T03:00:33.299Z,29.67
2023-03-15T03:03:01.897Z,26.10
2023-03-15T03:05:30.774Z,25.87
2023-03-15T03:07:59.435Z,27.60
2023-03-15T03:10:29.289Z,29.73
2023-03-15T03:12:58.996Z,28.20
2023-03-15T03:15:29.121Z,34.47
2023-03-15T03:17:57.714Z,30.83
2023-03-15T03:20:27.424Z,31.23
2023-03-15T03:22:56.916Z,29.33
2023-03-15T03:25:27.527Z,41.53
2023-03-15T03:27:57.575Z,28.47
2023-03-15T03:30:26.213Z,28.97
2023-03-15T03:32:56.404Z,40.53
2023-03-15T03:35:25.872Z,34.47
2023-03-15T03:37:55.202Z,27.00
2023-03-15T03:40:24.681Z,29.33
2023-03-15T03:42:53.177Z,23.77
2023-03-15T03:45:21.819Z,39.43
2023-03-15T03:47:51.884Z,27.57
2023-03-15T03:50:22.445Z,45.90
2023-03-15T03:52:51.109Z,29.80
2023-03-15T03:55:20.558Z,27.07
2023-03-15T03:57:51.212Z,25.63
2023-03-15T04:00:22.437Z,29.00
2023-03-15T04:02:55.749Z,28.90
2023-03-15T04:05:25.879Z,30.17
2023-03-15T04:07:54.558Z,33.20
2023-03-15T04:10:27.175Z,31.47
2023-03-15T04:12:56.601Z,28.53
2023-03-15T04:15:25.682Z,36.33
2023-03-15T04:17:56.426Z,31.30
2023-03-15T04:20:27.970Z,22.33
2023-03-15T04:22:56.480Z,30.70
2023-03-15T04:25:26.959Z,27.30
2023-03-15T04:27:59.938Z,33.57
2023-03-15T04:30:29.016Z,30.90
2023-03-15T04:33:00.182Z,32.07
2023-03-15T04:35:31.981Z,32.80
2023-03-15T04:38:00.640Z,35.33
2023-03-15T04:40:29.418Z,36.17
2023-03-15T04:42:58.456Z,31.13
2023-03-15T04:45:29.079Z,37.27
2023-03-15T04:47:57.648Z,30.50
2023-03-15T04:50:26.620Z,48.83
2023-03-15T04:52:56.779Z,27.30
2023-03-15T04:55:25.448Z,50.53
2023-03-15T04:57:54.035Z,34.47
2023-03-15T05:00:23.471Z,40.97
2023-03-15T05:02:55.153Z,32.87
2023-03-15T05:05:25.329Z,35.63
2023-03-15T05:07:55.451Z,44.37
2023-03-15T05:10:24.015Z,43.20
2023-03-15T05:12:52.670Z,52.63
2023-03-15T05:15:21.256Z,59.83
2023-03-15T05:17:50.111Z,42.10
2023-03-15T05:20:19.256Z,6.72
2023-03-15T05:22:47.868Z,13.67
2023-03-15T05:25:17.927Z,12.37
2023-03-15T05:27:47.364Z,18.30
2023-03-15T05:30:17.140Z,24.33
2023-03-15T05:32:46.019Z,36.30
2023-03-15T05:35:14.931Z,50.90
2023-03-15T05:37:43.768Z,65.80
2023-03-15T05:40:13.486Z,76.70
2023-03-15T05:42:43.746Z,77.23
2023-03-15T05:45:12.913Z,42.90
2023-03-15T05:47:41.421Z,59.57
2023-03-15T05:50:10.946Z,5.43
2023-03-15T05:52:39.870Z,15.50
2023-03-15T05:55:08.858Z,48.13
2023-03-15T05:57:37.430Z,37.55
2023-03-15T06:00:10.560Z,19.60
2023-03-15T06:02:39.158Z,84.97
2023-03-15T06:05:08.424Z,78.37
2023-03-15T06:07:37.174Z,86.27
2023-03-15T06:10:07.019Z,82.80
2023-03-15T06:12:36.631Z,83.00
2023-03-15T06:15:07.482Z,12.00
2023-03-15T06:17:36.283Z,17.43
2023-03-15T06:20:05.288Z,22.37
2023-03-15T06:22:34.252Z,48.43
2023-03-15T06:25:03.782Z,64.17
2023-03-15T06:27:33.515Z,72.83
2023-03-15T06:30:02.334Z,75.27
2023-03-15T06:32:32.668Z,58.80
2023-03-15T06:35:01.195Z,59.57
2023-03-15T06:37:35.456Z,77.73
2023-03-15T06:40:07.415Z,52.20
2023-03-15T06:42:36.479Z,53.90
2023-03-15T06:45:05.825Z,50.37
2023-03-15T06:47:36.300Z,30.13
2023-03-15T06:50:05.178Z,26.00
2023-03-15T06:52:33.708Z,23.60
2023-03-15T06:55:02.451Z,31.47
2023-03-15T06:57:31.162Z,52.03
2023-03-15T06:59:59.677Z,21.70
2023-03-15T07:02:28.368Z,27.70
2023-03-15T07:04:58.388Z,22.47
2023-03-15T07:07:26.925Z,17.93
2023-03-15T07:09:55.464Z,17.53
2023-03-15T07:12:23.977Z,17.03
2023-03-15T07:14:52.705Z,23.27
2023-03-15T07:17:21.607Z,20.50
2023-03-15T07:19:56.680Z,20.43
2023-03-15T07:22:27.239Z,29.30
2023-03-15T07:24:55.851Z,20.70
2023-03-15T07:27:24.371Z,45.50
2023-03-15T07:29:53.009Z,42.00
2023-03-15T07:32:21.547Z,19.30
2023-03-15T07:34:50.089Z,44.60
2023-03-15T07:37:19.013Z,49.87
2023-03-15T07:39:48.983Z,64.80
2023-03-15T07:42:17.630Z,81.07
2023-03-15T07:44:46.358Z,69.27
2023-03-15T07:47:15.007Z,80.40
2023-03-15T07:49:43.648Z,7.75
2023-03-15T07:52:12.651Z,11.40
2023-03-15T07:54:41.194Z,34.47
2023-03-15T07:57:11.870Z,71.60
2023-03-15T07:59:40.595Z,79.40
2023-03-15T08:02:11.319Z,64.37
2023-03-15T08:04:41.428Z,65.83
2023-03-15T08:07:10.180Z,71.33
2023-03-15T08:09:39.977Z,69.17
2023-03-15T08:12:10.557Z,74.70
2023-03-15T08:14:39.036Z,72.50
2023-03-15T08:18:00.507Z,91.83
2023-03-15T08:20:29.970Z,83.10
2023-03-15T08:22:59.385Z,53.17
2023-03-15T08:25:28.134Z,73.33
2023-03-15T08:27:58.101Z,59.20
2023-03-15T08:30:26.831Z,70.60
2023-03-15T08:32:57.022Z,63.57
2023-03-15T08:35:26.014Z,81.70
2023-03-15T08:37:54.569Z,85.43
2023-03-15T08:40:26.036Z,63.17
2023-03-15T08:42:55.433Z,94.93
2023-03-15T08:45:26.386Z,77.60
2023-03-15T08:47:57.072Z,84.00
2023-03-15T08:50:26.107Z,55.60
2023-03-15T08:52:54.762Z,63.77
2023-03-15T08:55:23.501Z,61.57
2023-03-15T08:57:52.178Z,47.90
2023-03-15T09:00:23.205Z,32.33
2023-03-15T09:02:53.824Z,21.40
2023-03-15T09:05:24.452Z,35.23
2023-03-15T09:07:53.945Z,47.47
2023-03-15T09:10:22.833Z,12.82
2023-03-15T09:12:54.835Z,14.00
2023-03-15T09:15:23.451Z,13.90
2023-03-15T09:17:53.671Z,18.63
2023-03-15T09:20:28.420Z,17.10
2023-03-15T09:22:58.543Z,16.17
2023-03-15T09:25:28.308Z,17.10
2023-03-15T09:27:57.469Z,12.40
2023-03-15T09:30:26.215Z,12.47
2023-03-15T09:32:58.752Z,15.93
2023-03-15T09:35:27.774Z,12.73
2023-03-15T09:38:07.162Z,14.57
2023-03-15T09:40:40.162Z,23.20
2023-03-15T09:43:26.998Z,18.83
2023-03-15T09:46:07.658Z,19.80
2023-03-15T09:48:43.462Z,15.30
2023-03-15T09:51:16.539Z,20.97
2023-03-15T09:53:52.218Z,11.97
2023-03-15T09:56:26.578Z,14.33
2023-03-15T09:58:59.420Z,27.17
2023-03-15T10:01:32.686Z,15.40
2023-03-15T10:04:07.992Z,42.80
2023-03-15T10:06:39.052Z,17.50
2023-03-15T10:09:17.609Z,25.17
2023-03-15T10:11:54.989Z,70.80
2023-03-15T10:14:34.118Z,80.60
2023-03-15T10:17:07.130Z,86.93
2023-03-15T10:19:46.132Z,86.17
2023-03-15T10:22:22.841Z,83.30
2023-03-15T10:24:54.982Z,61.03
2023-03-15T10:27:27.353Z,63.40
2023-03-15T10:29:59.077Z,64.47
2023-03-15T10:32:31.600Z,91.47
2023-03-15T10:35:12.552Z,77.53
2023-03-15T10:37:42.879Z,59.80
2023-03-15T10:40:16.127Z,54.00
2023-03-15T10:42:45.972Z,78.67
2023-03-15T10:45:22.224Z,21.73
2023-03-15T10:48:00.306Z,16.08
2023-03-15T10:50:36.091Z,14.23
2023-03-15T10:53:20.911Z,20.03
2023-03-15T10:55:58.950Z,41.83
2023-03-15T10:58:31.650Z,50.93
2023-03-15T11:01:07.664Z,62.07
2023-03-15T11:03:37.622Z,88.57
2023-03-15T11:06:21.584Z,57.07
2023-03-15T11:08:50.280Z,108.63
2023-03-15T11:11:22.194Z,83.83
2023-03-15T11:14:00.956Z,62.50
2023-03-15T11:16:37.082Z,98.97
2023-03-15T11:19:15.207Z,35.20
2023-03-15T11:21:48.168Z,22.13
2023-03-15T11:24:26.105Z,17.93
2023-03-15T11:26:56.935Z,20.27
2023-03-15T11:29:28.325Z,14.63
2023-03-15T11:31:58.299Z,17.37
2023-03-15T11:34:40.671Z,17.90
2023-03-15T11:37:17.312Z,19.60
2023-03-15T11:40:05.074Z,18.63
2023-03-15T11:42:45.991Z,26.73
2023-03-15T11:45:21.738Z,39.70
2023-03-15T11:47:55.882Z,65.17
2023-03-15T11:50:24.824Z,41.60
2023-03-15T11:52:55.301Z,42.30
2023-03-15T11:55:28.004Z,26.67
2023-03-15T11:57:58.102Z,51.00
2023-03-15T12:00:51.647Z,18.73
2023-03-15T12:03:43.040Z,46.70
2023-03-15T12:06:39.461Z,45.97
2023-03-15T12:09:51.146Z,44.97
2023-03-15T12:12:47.136Z,34.40
2023-03-15T12:15:49.551Z,26.90
2023-03-15T12:18:35.141Z,25.93
2023-03-15T12:21:23.707Z,22.83
2023-03-15T12:24:04.166Z,20.97
2023-03-15T12:26:44.512Z,23.43
2023-03-15T12:29:18.534Z,29.37
2023-03-15T12:31:57.498Z,18.17
2023-03-15T12:34:37.986Z,17.20
2023-03-15T12:41:30.702Z,69.57
2023-03-15T12:44:28.163Z,33.50
2023-03-15T12:47:05.225Z,94.07
2023-03-15T12:49:39.068Z,24.57
2023-03-15T12:52:29.326Z,22.33
2023-03-15T12:55:06.940Z,23.47
2023-03-15T12:57:41.600Z,41.70
2023-03-15T13:00:20.794Z,48.33
2023-03-15T13:02:55.274Z,79.80
2023-03-15T13:05:32.010Z,43.63
2023-03-15T13:08:22.786Z,24.53
2023-03-15T13:11:17.433Z,29.03
2023-03-15T13:14:04.265Z,34.90
2023-03-15T13:16:48.604Z,21.33
2023-03-15T13:19:23.207Z,35.97
2023-03-15T13:22:04.454Z,53.30
2023-03-15T13:24:43.612Z,39.13
2023-03-15T13:27:23.693Z,76.50
2023-03-15T13:29:53.210Z,80.13
2023-03-15T13:32:26.873Z,49.20
2023-03-15T13:34:59.616Z,46.73
2023-03-15T13:37:34.205Z,92.60
2023-03-15T13:40:16.388Z,52.30
2023-03-15T13:42:47.417Z,42.00
2023-03-15T13:45:18.060Z,41.80
2023-03-15T13:47:49.092Z,54.13
2023-03-15T13:50:19.780Z,50.80
2023-03-15T13:52:50.495Z,23.30
2023-03-15T13:55:25.590Z,63.70
2023-03-15T13:57:58.782Z,16.73
2023-03-15T14:00:28.772Z,32.30
2023-03-15T14:03:03.319Z,44.87
2023-03-15T14:05:35.021Z,53.90
2023-03-15T14:08:06.674Z,47.33
2023-03-15T14:10:47.562Z,49.30
2023-03-15T14:13:26.255Z,51.77
2023-03-15T14:15:59.448Z,18.80
2023-03-15T14:18:33.728Z,52.47
2023-03-15T14:21:05.302Z,68.80
2023-03-15T14:23:37.010Z,58.23
2023-03-15T14:26:13.850Z,19.53
2023-03-15T14:28:43.870Z,22.70
2023-03-15T14:31:24.691Z,17.53
2023-03-15T14:34:01.238Z,41.53
2023-03-15T14:36:35.950Z,115.83
2023-03-15T14:39:06.474Z,116.67
2023-03-15T14:41:35.567Z,129.93
2023-03-15T14:44:04.777Z,136.30
2023-03-15T14:46:34.037Z,113.43
2023-03-15T14:49:04.416Z,89.10
2023-03-15T14:51:34.162Z,81.80
2023-03-15T14:54:03.185Z,88.13
2023-03-15T14:56:32.393Z,79.43
2023-03-15T14:59:03.347Z,73.23
2023-03-15T15:01:33.079Z,71.93
2023-03-15T15:04:07.177Z,66.13
2023-03-15T15:06:38.475Z,52.77
2023-03-15T15:09:07.920Z,52.20
2023-03-15T15:11:36.711Z,70.97
2023-03-15T15:14:05.748Z,76.53
2023-03-15T15:16:34.767Z,50.20
2023-03-15T15:19:05.112Z,28.40
2023-03-15T15:21:38.860Z,24.73
2023-03-15T15:24:20.358Z,37.20
2023-03-15T15:26:49.703Z,40.57
2023-03-15T15:29:19.043Z,46.97
2023-03-15T15:31:49.988Z,46.87
2023-03-15T15:34:23.530Z,29.77
2023-03-15T15:36:54.134Z,52.37
2023-03-15T15:39:25.271Z,73.97
2023-03-15T15:41:54.314Z,63.80
2023-03-15T15:44:24.148Z,78.43
2023-03-15T15:46:52.903Z,94.87
2023-03-15T15:49:21.681Z,93.53
2023-03-15T15:51:52.464Z,93.50
2023-03-15T15:54:30.176Z,85.27
2023-03-15T15:57:00.305Z,75.37
2023-03-15T15:59:31.414Z,103.53
2023-03-15T16:02:02.662Z,100.03
2023-03-15T16:04:33.245Z,108.73
2023-03-15T16:07:05.200Z,79.30
2023-03-15T16:09:38.255Z,114.83
2023-03-15T16:12:15.216Z,136.80
2023-03-15T16:14:46.556Z,127.47
2023-03-15T16:17:18.845Z,126.53
2023-03-15T16:19:48.063Z,127.07
2023-03-15T16:22:21.181Z,130.80
2023-03-15T16:24:54.115Z,11.48
2023-03-15T16:27:27.397Z,14.13
2023-03-15T16:29:57.531Z,45.73
2023-03-15T16:32:43.064Z,72.03
2023-03-15T16:35:25.345Z,96.47
2023-03-15T16:37:58.659Z,98.23
2023-03-15T16:40:41.116Z,101.10
2023-03-15T16:43:15.423Z,86.70
2023-03-15T16:45:58.199Z,84.87
2023-03-15T16:48:27.030Z,94.80
2023-03-15T16:50:56.378Z,91.20
2023-03-15T16:53:26.669Z,84.17
2023-03-15T16:55:58.361Z,62.87
2023-03-15T16:58:27.312Z,91.10
2023-03-15T17:00:59.514Z,58.10
2023-03-15T17:03:30.347Z,53.47
2023-03-15T17:05:59.664Z,59.27
2023-03-15T17:08:30.248Z,50.27
2023-03-15T17:10:59.313Z,56.97
2023-03-15T17:13:30.637Z,75.23
2023-03-15T17:16:00.417Z,69.13
2023-03-15T17:18:30.417Z,84.43
2023-03-15T17:21:02.082Z,77.10
2023-03-15T17:23:32.926Z,79.77
2023-03-15T17:26:03.075Z,94.10
2023-03-15T17:28:32.044Z,80.00
2023-03-15T17:31:23.309Z,87.87
2023-03-15T17:33:55.496Z,64.33
2023-03-15T17:36:26.770Z,60.00
2023-03-15T17:38:57.499Z,57.20
2023-03-15T17:41:37.589Z,25.38
2023-03-15T17:44:13.564Z,41.57
2023-03-15T17:46:43.273Z,91.10
2023-03-15T17:49:14.678Z,109.23
2023-03-15T17:51:48.458Z,150.03
2023-03-15T17:54:26.087Z,212.17
2023-03-15T17:56:57.372Z,217.43
2023-03-15T17:59:26.543Z,155.43
2023-03-15T18:01:55.925Z,138.80
2023-03-15T18:04:25.245Z,163.27
2023-03-15T18:06:56.653Z,147.60
2023-03-15T18:09:32.690Z,109.03
2023-03-15T18:12:03.639Z,107.67
2023-03-15T18:14:37.668Z,75.10
2023-03-15T18:17:07.031Z,87.73
2023-03-15T18:19:39.226Z,86.07
2023-03-15T18:22:08.424Z,75.33
2023-03-15T18:24:39.085Z,71.07
2023-03-15T18:27:08.301Z,63.43
2023-03-15T18:29:37.903Z,65.43
2023-03-15T18:32:28.417Z,60.33
2023-03-15T18:34:57.644Z,51.87
2023-03-15T18:37:26.732Z,54.60
2023-03-15T18:39:57.422Z,61.63
2023-03-15T18:42:30.043Z,57.70
2023-03-15T18:45:03.861Z,53.63
2023-03-15T18:47:32.743Z,53.67
2023-03-15T18:50:10.128Z,51.83
2023-03-15T18:52:39.959Z,46.00
2023-03-15T18:55:53.254Z,48.70
2023-03-15T18:58:35.527Z,48.50
2023-03-15T19:01:12.376Z,47.60
2023-03-15T19:03:46.636Z,48.93
2023-03-15T19:06:16.532Z,51.73
2023-03-15T19:08:45.521Z,52.63
2023-03-15T19:11:15.876Z,58.30
2023-03-15T19:13:51.274Z,53.83
2023-03-15T19:16:20.975Z,51.40
2023-03-15T19:18:53.739Z,56.03
2023-03-15T19:21:22.441Z,55.60
2023-03-15T19:23:52.643Z,53.83
2023-03-15T19:26:22.999Z,54.90
2023-03-15T19:28:51.589Z,49.63
2023-03-15T19:31:20.390Z,47.83
2023-03-15T19:33:49.186Z,53.33
2023-03-15T19:36:17.992Z,56.83
2023-03-15T19:38:46.964Z,42.63
2023-03-15T19:41:15.966Z,45.90
2023-03-15T19:43:46.847Z,49.90
2023-03-15T19:46:17.736Z,56.23
2023-03-15T19:48:46.281Z,63.70
2023-03-15T19:51:16.737Z,51.57
2023-03-15T19:53:45.410Z,55.77
2023-03-15T19:56:14.336Z,51.43
2023-03-15T19:58:43.010Z,44.07
2023-03-15T20:01:13.275Z,43.67
2023-03-15T20:03:41.995Z,43.60
2023-03-15T20:06:12.773Z,37.97
2023-03-15T20:08:41.974Z,45.70
2023-03-15T20:11:15.023Z,44.70
2023-03-15T20:13:44.228Z,44.30
2023-03-15T20:16:16.177Z,37.17
2023-03-15T20:18:44.837Z,35.60
2023-03-15T20:21:14.923Z,40.97
2023-03-15T20:23:43.739Z,37.00
2023-03-15T20:26:14.575Z,40.83
2023-03-15T20:28:44.549Z,45.20
2023-03-15T20:31:17.392Z,46.93
2023-03-15T20:33:48.952Z,46.63
2023-03-15T20:36:18.232Z,46.13
2023-03-15T20:38:47.508Z,52.00
2023-03-15T20:41:18.870Z,35.63
2023-03-15T20:43:47.761Z,35.40
2023-03-15T20:46:19.450Z,34.17
2023-03-15T20:48:48.207Z,32.73
2023-03-15T20:51:16.826Z,36.57
2023-03-15T20:53:45.657Z,35.93
2023-03-15T20:56:14.411Z,36.27
2023-03-15T20:58:43.047Z,40.77
2023-03-15T21:01:15.168Z,41.00
2023-03-15T21:03:46.405Z,42.33
2023-03-15T21:06:15.239Z,43.40
2023-03-15T21:08:44.345Z,36.00
2023-03-15T21:11:12.994Z,34.73
2023-03-15T21:13:41.548Z,37.83
2023-03-15T21:16:10.156Z,35.67
2023-03-15T21:18:38.838Z,45.50
2023-03-15T21:21:09.388Z,44.77
2023-03-15T21:23:38.292Z,41.83
2023-03-15T21:26:09.820Z,34.67
2023-03-15T21:28:39.097Z,32.50
2023-03-15T21:31:08.922Z,31.53
2023-03-15T21:33:37.765Z,27.77
2023-03-15T21:36:06.680Z,30.97
2023-03-15T21:38:36.593Z,33.40
2023-03-15T21:41:11.640Z,31.30
2023-03-15T21:43:40.433Z,31.50
2023-03-15T21:46:11.142Z,31.90
2023-03-15T21:48:39.940Z,28.63
2023-03-15T21:51:08.978Z,31.30
2023-03-15T21:53:39.120Z,31.48
2023-03-15T21:56:08.555Z,31.83
2023-03-15T21:58:37.152Z,56.97
2023-03-15T22:01:13.211Z,48.00
2023-03-15T22:03:44.405Z,42.33
2023-03-15T22:06:13.803Z,28.75
2023-03-15T22:08:43.891Z,32.25
2023-03-15T22:11:12.523Z,42.10
2023-03-15T22:13:42.079Z,62.67
2023-03-15T22:16:11.539Z,64.50
2023-03-15T22:18:40.200Z,47.13
2023-03-15T22:21:08.972Z,51.00
2023-03-15T22:23:37.570Z,56.80
2023-03-15T22:26:08.212Z,51.50
2023-03-15T22:28:36.831Z,38.10
2023-03-15T22:31:11.165Z,35.97
2023-03-15T22:33:43.367Z,33.87
2023-03-15T22:36:12.471Z,33.47
2023-03-15T22:38:40.992Z,35.87
2023-03-15T22:41:14.210Z,34.63
2023-03-15T22:43:43.135Z,34.07
2023-03-15T22:46:11.903Z,36.90
2023-03-15T22:48:40.585Z,33.43
2023-03-15T22:51:10.927Z,33.83
2023-03-15T22:53:39.572Z,36.80
2023-03-15T22:56:08.280Z,38.33
2023-03-15T22:58:38.433Z,43.73
2023-03-15T23:01:07.186Z,40.73
2023-03-15T23:03:35.799Z,36.60
2023-03-15T23:06:04.491Z,40.17
2023-03-15T23:08:33.333Z,39.87
2023-03-15T23:11:02.153Z,36.03
2023-03-15T23:13:31.332Z,32.70
2023-03-15T23:16:04.176Z,31.63
2023-03-15T23:18:34.461Z,30.77
2023-03-15T23:21:08.036Z,33.70
2023-03-15T23:23:37.112Z,32.70
2023-03-15T23:26:06.081Z,36.40
2023-03-15T23:28:35.044Z,49.57
2023-03-15T23:31:07.530Z,50.63
2023-03-15T23:33:36.223Z,40.87
2023-03-15T23:36:07.102Z,32.63
2023-03-15T23:38:35.852Z,40.93
2023-03-15T23:41:05.161Z,52.03
2023-03-15T23:43:34.614Z,52.30
2023-03-15T23:46:06.460Z,37.13
2023-03-15T23:48:36.327Z,40.70
2023-03-15T23:51:05.219Z,36.30
2023-03-15T23:53:34.106Z,33.73
2023-03-15T23:56:03.055Z,34.30
2023-03-15T23:58:31.630Z,43.13
